Menu       Home   X °F

Selecionar outro período ( Esconder esta área )

Unidade Período Personalizar data Ir para
Métrica Imperial Ambos
Dia Semana Mês Ano
use ambos os seletores de data para um intervalo de tempo pretendido
dia anterior
Data de inicio
Dia resumo de Sábado 18 Mai 2024
Hora Temp. ( °C ) Ponto de orvalho ( °C ) Vento ( km/h ) Direcção do vento Rajada ( km/h ) Pressão ( hPa ) Humid.( % ) Taxa de precipitação ( cm )
Máxima21,3 12,8 23,0 North ( 1222/2351 ) 28,0 1016,3 86 -
Média16,7 11,7 11,8 North #94/199 15,1 1015,4 74 -
Mínima13,8 10,0 4,0   6,0 1014,3 49 -
Dia detalhado de Sábado 18 Mai 2024
Hora Temp. ( °C ) Ponto de orvalho ( °C ) Vento ( km/h ) Direcção do vento Rajada ( km/h ) Pressão ( hPa ) Humid.( % ) Taxa de precipitação ( cm )
00:04 15,1 12,0 9,0 NNW 13,0 1015,6 82 -
00:09 15,1 12,0 6,0 North 7,0 1015,6 82 -
00:14 15,1 12,0 8,0 North 11,0 1015,7 82 -
00:19 15,1 12,0 13,0 NNW 17,0 1015,7 82 -
00:24 15,1 12,0 15,0 North 17,0 1015,7 82 -
00:29 15,2 12,1 12,0 North 15,0 1015,6 82 -
00:34 15,2 12,1 11,0 North 15,0 1015,7 82 -
00:39 15,1 12,2 14,0 NNW 18,0 1015,6 83 -
00:44 15,1 12,2 14,0 North 17,0 1015,7 83 -
00:49 15,1 12,0 14,0 North 18,0 1015,6 82 -
00:54 15,1 12,0 17,0 North 20,0 1015,7 82 -
00:59 15,1 12,0 9,0 North 15,0 1015,6 82 -
01:04 15,1 11,9 15,0 North 17,0 1015,5 81 -
01:09 15,2 12,0 13,0 North 17,0 1015,6 81 -
01:14 15,1 11,9 8,0 NNE 11,0 1015,5 81 -
01:19 15,1 12,0 17,0 NNE 22,0 1015,5 82 -
01:24 15,1 11,9 15,0 NNE 18,0 1015,4 81 -
01:29 15,1 12,0 18,0 North 26,0 1015,4 82 -
01:34 15,1 12,0 14,0 North 17,0 1015,5 82 -
01:39 15,1 12,0 14,0 North 20,0 1015,5 82 -
01:44 15,0 12,0 19,0 North 22,0 1015,3 82 -
01:49 14,9 11,9 14,0 North 18,0 1015,3 82 -
01:54 15,0 12,0 17,0 North 22,0 1015,3 82 -
01:59 15,0 12,0 16,0 NNE 22,0 1015,3 82 -
02:04 14,9 11,9 17,0 North 18,0 1015,3 82 -
02:09 14,9 11,9 15,0 North 18,0 1015,2 82 -
02:14 14,9 11,9 12,0 North 15,0 1015,3 82 -
02:19 14,8 11,8 17,0 North 22,0 1015,3 82 -
02:24 14,8 11,8 17,0 NNW 20,0 1015,2 82 -
02:29 14,8 11,8 17,0 North 20,0 1015,1 83 -
02:34 14,7 11,8 16,0 North 18,0 1015,1 83 -
02:39 14,7 11,8 12,0 North 17,0 1015,2 83 -
02:44 14,6 11,7 12,0 North 20,0 1015,2 83 -
02:49 14,6 11,7 9,0 North 15,0 1015,1 83 -
02:54 14,5 11,8 11,0 North 13,0 1015,3 84 -
02:59 14,5 11,8 8,0 North 9,0 1015,1 84 -
03:04 14,4 11,7 9,0 North 11,0 1015,1 84 -
03:09 14,4 11,7 13,0 NNW 15,0 1015,0 84 -
03:14 14,4 11,7 14,0 North 18,0 1015,2 84 -
03:19 14,4 11,5 11,0 North 13,0 1015,1 83 -
03:24 14,4 11,5 15,0 NNW 18,0 1015,0 83 -
03:29 14,3 11,5 12,0 North 15,0 1015,0 83 -
03:34 14,3 11,6 7,0 North 9,0 1014,9 84 -
03:39 14,3 11,6 10,0 North 11,0 1015,1 84 -
03:44 14,3 11,6 9,0 NNW 11,0 1015,0 84 -
03:49 14,2 11,5 8,0 NNW 11,0 1015,0 84 -
03:54 14,2 11,5 8,0 North 11,0 1014,9 84 -
03:59 14,2 11,5 8,0 NNW 9,0 1015,0 84 -
04:04 14,1 11,4 8,0 NNW 11,0 1015,1 84 -
04:09 14,1 11,4 11,0 NNW 11,0 1015,0 84 -
04:14 14,1 11,4 9,0 NNW 11,0 1015,0 84 -
04:19 14,1 11,5 6,0 NNW 11,0 1015,0 85 -
04:24 14,0 11,5 6,0 NW 9,0 1014,9 85 -
04:29 13,9 11,4 7,0 NNW 9,0 1015,0 85 -
04:34 13,8 11,3 7,0 NNW 9,0 1014,9 85 -
04:39 13,8 11,3 6,0 NW 9,0 1014,9 85 -
04:44 13,9 11,4 8,0 North 9,0 1014,9 85 -
04:49 14,0 11,5 6,0 NNW 7,0 1014,8 85 -
04:54 14,0 11,5 6,0 NNW 9,0 1015,0 85 -
04:59 14,0 11,5 6,0 NNW 7,0 1014,8 85 -
05:04 14,0 11,5 6,0 NNW 7,0 1015,0 85 -
05:09 14,0 11,5 5,0 NW 6,0 1014,9 85 -
05:14 13,9 11,4 5,0 NW 7,0 1015,1 85 -
05:19 13,8 11,3 6,0 NNW 7,0 1014,9 85 -
05:24 13,8 11,3 7,0 NNW 9,0 1014,9 85 -
05:29 13,8 11,3 5,0 NW 7,0 1014,8 85 -
05:34 13,8 11,3 6,0 NNW 9,0 1015,0 85 -
05:39 13,8 11,3 4,0 NW 6,0 1014,9 85 -
05:44 13,8 11,5 5,0 NW 6,0 1014,9 86 -
05:49 13,8 11,5 7,0 NNW 9,0 1014,9 86 -
05:54 13,8 11,3 6,0 NNW 7,0 1014,8 85 -
05:59 13,9 11,4 6,0 NW 9,0 1014,8 85 -
06:04 14,0 11,5 8,0 NNW 11,0 1014,9 85 -
06:09 14,0 11,5 8,0 NNW 13,0 1014,8 85 -
06:14 14,0 11,5 8,0 NW 9,0 1014,8 85 -
06:19 14,0 11,5 11,0 NNW 15,0 1014,9 85 -
06:24 14,1 11,6 8,0 NNW 11,0 1014,9 85 -
06:29 14,1 11,8 10,0 NNW 11,0 1014,8 86 -
06:34 14,1 11,8 9,0 NNW 11,0 1014,9 86 -
06:39 14,2 11,9 14,0 North 17,0 1015,2 86 -
06:44 14,3 12,0 6,0 North 9,0 1015,0 86 -
06:49 14,4 11,9 12,0 North 15,0 1015,1 85 -
06:54 14,4 11,9 8,0 NNW 11,0 1015,1 85 -
06:59 14,5 12,0 12,0 North 15,0 1015,4 85 -
07:04 14,6 12,1 7,0 NNW 11,0 1015,3 85 -
07:09 14,6 12,1 7,0 NNW 11,0 1015,4 85 -
07:14 14,7 12,0 11,0 North 13,0 1015,3 84 -
07:19 14,7 12,0 10,0 North 11,0 1015,4 84 -
07:24 14,9 12,1 8,0 NNW 13,0 1015,5 84 -
07:29 15,0 12,1 9,0 North 13,0 1015,6 83 -
07:34 15,2 12,3 9,0 NNW 11,0 1015,5 83 -
07:39 15,3 12,3 8,0 North 9,0 1015,6 83 -
07:44 15,5 12,4 10,0 North 11,0 1015,5 82 -
07:49 15,5 12,2 13,0 North 17,0 1015,5 81 -
07:54 15,5 12,2 14,0 North 17,0 1015,4 81 -
07:59 15,8 12,4 12,0 North 15,0 1015,5 80 -
08:04 15,8 12,2 15,0 North 20,0 1015,6 79 -
08:09 15,7 12,1 14,0 North 15,0 1015,5 79 -
08:14 15,8 12,2 8,0 North 11,0 1015,6 79 -
08:19 15,8 12,2 12,0 NNE 15,0 1015,7 79 -
08:24 15,8 12,2 21,0 North 24,0 1015,8 79 -
08:29 15,8 12,2 15,0 North 18,0 1015,7 80 -
08:34 15,8 12,2 14,0 NNE 17,0 1015,7 79 -
08:39 15,8 12,2 16,0 NW 20,0 1015,9 79 -
08:44 15,6 12,2 12,0 NNW 15,0 1016,0 80 -
08:49 15,6 12,4 12,0 North 15,0 1015,9 82 -
08:54 15,4 12,3 10,0 NNW 11,0 1016,2 82 -
08:59 15,4 12,4 12,0 NW 15,0 1016,1 83 -
09:04 15,3 12,3 11,0 NW 15,0 1016,0 83 -
09:09 15,4 12,3 11,0 NNW 15,0 1016,3 82 -
09:14 15,5 12,3 7,0 NW 11,0 1016,3 82 -
09:19 15,5 12,2 11,0 NNW 15,0 1016,2 81 -
09:24 15,6 12,2 9,0 NNW 13,0 1016,2 80 -
09:29 15,8 12,3 10,0 NNW 13,0 1016,2 80 -
09:34 16,1 12,4 8,0 North 11,0 1016,3 79 -
09:39 16,4 12,5 12,0 NNW 17,0 1016,2 78 -
09:44 16,5 12,3 12,0 North 15,0 1016,2 77 -
09:49 16,7 12,4 14,0 NNW 18,0 1016,1 77 -
09:54 17,0 12,5 14,0 NNE 20,0 1016,2 76 -
09:59 17,3 12,6 15,0 North 17,0 1016,1 75 -
10:04 17,5 12,7 12,0 North 15,0 1016,2 74 -
10:09 17,6 12,7 11,0 NNE 13,0 1016,3 74 -
10:14 17,6 12,8 9,0 North 11,0 1016,1 74 -
10:19 17,3 12,7 12,0 North 17,0 1016,2 74 -
10:24 17,1 12,5 13,0 NW 17,0 1016,1 75 -
10:29 16,8 12,4 13,0 North 15,0 1016,1 75 -
10:34 17,3 12,5 13,0 North 15,0 1016,2 75 -
10:39 17,9 12,7 8,0 NE 11,0 1016,2 74 -
10:44 18,1 12,4 11,0 NE 17,0 1016,1 70 -
10:49 18,1 12,2 15,0 WNW 17,0 1016,1 69 -
10:54 17,6 12,1 12,0 NNW 15,0 1016,2 70 -
10:59 17,3 12,0 14,0 North 15,0 1016,2 72 -
11:04 17,5 12,2 12,0 North 13,0 1016,2 71 -
11:09 17,3 12,1 10,0 NE 13,0 1016,2 72 -
11:14 17,6 12,3 14,0 North 18,0 1016,1 71 -
11:19 18,0 12,0 8,0 NNE 11,0 1016,1 69 -
11:24 18,5 12,0 11,0 NNE 17,0 1016,2 67 -
11:29 19,4 11,8 7,0 NE 11,0 1015,9 65 -
11:34 19,8 12,0 12,0 NNE 15,0 1016,2 62 -
11:39 19,2 11,6 15,0 NNW 18,0 1016,1 62 -
11:44 19,3 11,6 13,0 NNE 18,0 1016,0 61 -
11:49 19,5 11,8 12,0 North 15,0 1016,0 62 -
11:54 19,1 11,7 11,0 North 13,0 1016,0 63 -
11:59 19,7 12,0 11,0 NE 17,0 1016,1 61 -
12:04 19,7 12,0 10,0 North 13,0 1016,1 64 -
12:09 18,9 11,6 17,0 NNE 18,0 1015,8 63 -
12:14 19,7 10,4 9,0 NW 13,0 1016,0 57 -
12:19 20,3 10,7 12,0 North 17,0 1016,1 55 -
12:24 20,2 10,3 14,0 North 17,0 1015,9 55 -
12:29 19,9 10,5 8,0 NW 13,0 1015,9 55 -
12:34 20,3 10,4 13,0 North 17,0 1016,1 53 -
12:39 20,5 10,6 12,0 NNE 17,0 1016,0 53 -
12:44 20,5 10,6 11,0 ENE 15,0 1015,8 53 -
12:49 20,5 10,6 11,0 North 15,0 1015,9 53 -
12:54 20,4 10,4 12,0 NE 13,0 1015,9 53 -
12:59 20,4 10,6 9,0 North 13,0 1015,9 54 -
13:04 20,3 10,8 11,0 North 13,0 1015,9 55 -
13:09 20,6 10,7 7,0 NNE 11,0 1015,7 55 -
13:14 21,3 11,4 13,0 NE 17,0 1015,6 53 -
13:19 20,7 11,1 11,0 NNE 15,0 1015,6 54 -
13:24 20,5 10,9 12,0 North 15,0 1015,7 55 -
13:29 20,3 11,0 11,0 NE 17,0 1015,5 55 -
13:34 20,3 11,0 16,0 North 20,0 1015,6 56 -
13:39 19,8 11,1 15,0 North 18,0 1015,6 58 -
13:44 19,9 11,2 15,0 North 20,0 1015,5 57 -
13:49 20,0 11,8 22,0 NNW 26,0 1015,6 59 -
13:54 19,9 11,7 23,0 North 26,0 1015,5 60 -
13:59 19,9 11,9 20,0 North 28,0 1015,3 61 -
14:04 19,6 11,6 19,0 NE 26,0 1015,4 61 -
14:09 19,6 11,6 17,0 NNW 24,0 1015,2 60 -
14:14 19,2 11,3 19,0 North 22,0 1015,4 60 -
14:19 19,5 11,2 12,0 NNW 17,0 1015,4 60 -
14:24 19,8 11,2 12,0 North 18,0 1015,3 58 -
14:29 19,8 11,3 18,0 North 20,0 1015,2 59 -
14:34 19,7 11,1 17,0 North 18,0 1015,2 59 -
14:39 19,7 11,3 15,0 North 18,0 1015,3 59 -
14:44 19,7 11,3 10,0 NNW 13,0 1015,1 59 -
14:49 19,8 11,1 13,0 NNW 15,0 1015,2 57 -
14:54 20,0 11,0 12,0 North 17,0 1015,3 56 -
14:59 20,0 11,2 17,0 North 18,0 1015,2 57 -
15:04 19,9 11,2 15,0 NW 20,0 1015,2 57 -
15:09 19,8 11,1 13,0 North 17,0 1015,0 57 -
15:14 19,6 11,0 17,0 North 18,0 1014,9 58 -
15:19 20,8 11,1 15,0 NNW 18,0 1014,7 55 -
15:24 21,1 11,2 16,0 North 22,0 1014,8 54 -
15:29 21,0 11,4 12,0 North 15,0 1014,8 55 -
15:34 20,7 11,4 14,0 NNW 18,0 1014,6 56 -
15:39 20,4 10,5 14,0 NW 18,0 1014,7 54 -
15:44 20,6 10,6 15,0 North 17,0 1014,6 53 -
15:49 21,1 10,8 15,0 North 18,0 1014,6 52 -
15:54 20,9 10,7 15,0 North 20,0 1014,6 53 -
15:59 21,2 10,7 17,0 NNW 20,0 1014,5 53 -
16:04 21,2 11,0 17,0 NW 22,0 1014,5 52 -
16:09 20,9 10,7 16,0 NNW 20,0 1014,6 52 -
16:14 20,9 11,0 16,0 NW 18,0 1014,5 53 -
16:19 21,1 11,4 14,0 NNW 24,0 1014,5 54 -
16:24 21,1 11,2 16,0 NNW 20,0 1014,4 53 -
16:29 21,1 10,0 15,0 NNW 22,0 1014,4 49 -
16:34 20,9 10,1 15,0 NW 20,0 1014,3 50 -

Dados meteorológicos armazenados em Weather Underground. Original script b Jim McMurry. Rewritten for template use Leuven-Template